sensor_id;sensor_type;location;lat;lon;timestamp;pressure;altitude;pressure_sealevel;temperature;humidity
11712;BME280;5912;51.034;6.984;2023-04-30T00:01:57;56562.66;;;-142.13;76.04
11712;BME280;5912;51.034;6.984;2023-04-30T00:04:22;56592.72;;;-142.13;76.04
11712;BME280;5912;51.034;6.984;2023-04-30T00:06:47;56572.69;;;-142.13;75.94
11712;BME280;5912;51.034;6.984;2023-04-30T00:09:13;56586.69;;;-142.13;75.92
11712;BME280;5912;51.034;6.984;2023-04-30T00:11:38;56600.72;;;-142.13;76.05
11712;BME280;5912;51.034;6.984;2023-04-30T00:14:03;56578.69;;;-142.13;76.41
11712;BME280;5912;51.034;6.984;2023-04-30T00:16:28;56576.69;;;-142.13;76.45
11712;BME280;5912;51.034;6.984;2023-04-30T00:18:54;56584.69;;;-142.13;76.53
11712;BME280;5912;51.034;6.984;2023-04-30T00:21:19;56572.69;;;-142.13;75.81
11712;BME280;5912;51.034;6.984;2023-04-30T00:23:44;56578.69;;;-142.13;76.03
11712;BME280;5912;51.034;6.984;2023-04-30T00:26:10;56574.69;;;-142.13;75.76
11712;BME280;5912;51.034;6.984;2023-04-30T00:28:35;56570.69;;;-142.13;75.75
11712;BME280;5912;51.034;6.984;2023-04-30T00:31:00;56588.69;;;-142.13;75.89
11712;BME280;5912;51.034;6.984;2023-04-30T00:33:26;56560.66;;;-142.13;76.00
11712;BME280;5912;51.034;6.984;2023-04-30T00:35:52;56562.66;;;-142.13;75.79
11712;BME280;5912;51.034;6.984;2023-04-30T00:38:17;56580.69;;;-142.13;75.48
11712;BME280;5912;51.034;6.984;2023-04-30T00:40:43;56530.59;;;-142.13;75.48
11712;BME280;5912;51.034;6.984;2023-04-30T00:43:08;56550.63;;;-142.13;75.24
11712;BME280;5912;51.034;6.984;2023-04-30T00:45:33;56590.72;;;-142.13;74.85
11712;BME280;5912;51.034;6.984;2023-04-30T00:47:59;56572.69;;;-142.13;74.78
11712;BME280;5912;51.034;6.984;2023-04-30T00:50:36;56536.63;;;-142.13;74.98
11712;BME280;5912;51.034;6.984;2023-04-30T00:53:02;56546.63;;;-142.13;74.62
11712;BME280;5912;51.034;6.984;2023-04-30T00:55:28;56580.69;;;-142.13;74.67
11712;BME280;5912;51.034;6.984;2023-04-30T00:57:53;56586.69;;;-142.13;74.42
11712;BME280;5912;51.034;6.984;2023-04-30T01:00:19;56552.66;;;-142.13;74.68
11712;BME280;5912;51.034;6.984;2023-04-30T01:02:45;56580.69;;;-142.13;74.96
11712;BME280;5912;51.034;6.984;2023-04-30T01:05:11;56558.66;;;-142.13;74.81
11712;BME280;5912;51.034;6.984;2023-04-30T01:07:37;56560.66;;;-142.13;74.88
11712;BME280;5912;51.034;6.984;2023-04-30T01:10:06;56568.66;;;-142.13;74.67
11712;BME280;5912;51.034;6.984;2023-04-30T01:12:42;56582.69;;;-142.13;75.07
11712;BME280;5912;51.034;6.984;2023-04-30T01:18:22;56592.72;;;-142.13;74.93
11712;BME280;5912;51.034;6.984;2023-04-30T01:20:55;56584.69;;;-142.13;75.13
11712;BME280;5912;51.034;6.984;2023-04-30T01:28:42;56588.69;;;-142.13;75.02
11712;BME280;5912;51.034;6.984;2023-04-30T01:31:13;56558.66;;;-142.13;74.87
11712;BME280;5912;51.034;6.984;2023-04-30T01:33:38;56616.75;;;-142.13;74.97
11712;BME280;5912;51.034;6.984;2023-04-30T01:36:33;56582.69;;;-142.13;75.07
11712;BME280;5912;51.034;6.984;2023-04-30T01:41:57;56596.72;;;-142.13;75.24
11712;BME280;5912;51.034;6.984;2023-04-30T01:50:04;56616.75;;;-142.13;75.16
11712;BME280;5912;51.034;6.984;2023-04-30T01:52:54;56588.69;;;-142.13;75.25
11712;BME280;5912;51.034;6.984;2023-04-30T01:55:27;56576.69;;;-142.13;75.39
11712;BME280;5912;51.034;6.984;2023-04-30T01:57:59;56598.72;;;-142.13;75.32
11712;BME280;5912;51.034;6.984;2023-04-30T02:00:26;56604.72;;;-142.13;75.32
11712;BME280;5912;51.034;6.984;2023-04-30T02:02:51;56602.72;;;-142.13;75.39
11712;BME280;5912;51.034;6.984;2023-04-30T02:05:17;56594.72;;;-142.13;75.38
11712;BME280;5912;51.034;6.984;2023-04-30T02:07:44;56614.75;;;-142.13;75.45
11712;BME280;5912;51.034;6.984;2023-04-30T02:10:11;56632.78;;;-142.13;75.33
11712;BME280;5912;51.034;6.984;2023-04-30T02:12:37;56602.72;;;-142.13;75.31
11712;BME280;5912;51.034;6.984;2023-04-30T02:15:03;56596.72;;;-142.13;75.42
11712;BME280;5912;51.034;6.984;2023-04-30T02:17:29;56592.72;;;-142.13;75.40
11712;BME280;5912;51.034;6.984;2023-04-30T02:19:55;56568.66;;;-142.13;75.25
11712;BME280;5912;51.034;6.984;2023-04-30T02:22:20;56596.72;;;-142.13;75.21
11712;BME280;5912;51.034;6.984;2023-04-30T02:24:46;56588.69;;;-142.13;75.04
11712;BME280;5912;51.034;6.984;2023-04-30T02:27:11;56612.75;;;-142.13;75.06
11712;BME280;5912;51.034;6.984;2023-04-30T02:29:37;56596.72;;;-142.13;74.96
11712;BME280;5912;51.034;6.984;2023-04-30T02:32:02;56580.69;;;-142.13;74.65
11712;BME280;5912;51.034;6.984;2023-04-30T02:34:27;56564.66;;;-142.13;74.67
11712;BME280;5912;51.034;6.984;2023-04-30T02:36:52;56564.66;;;-142.13;74.71
11712;BME280;5912;51.034;6.984;2023-04-30T02:39:18;56586.69;;;-142.13;74.73
11712;BME280;5912;51.034;6.984;2023-04-30T02:41:43;56572.69;;;-142.13;74.59
11712;BME280;5912;51.034;6.984;2023-04-30T02:44:08;56606.75;;;-142.13;74.81
11712;BME280;5912;51.034;6.984;2023-04-30T02:46:34;56590.72;;;-142.13;74.53
11712;BME280;5912;51.034;6.984;2023-04-30T02:48:59;56590.72;;;-142.13;74.65
11712;BME280;5912;51.034;6.984;2023-04-30T02:51:24;56602.72;;;-142.13;74.84
11712;BME280;5912;51.034;6.984;2023-04-30T02:53:50;56606.75;;;-142.13;74.81
11712;BME280;5912;51.034;6.984;2023-04-30T02:56:16;56652.81;;;-142.13;74.95
11712;BME280;5912;51.034;6.984;2023-04-30T02:58:41;56622.75;;;-142.13;74.95
11712;BME280;5912;51.034;6.984;2023-04-30T03:01:06;56602.72;;;-142.13;75.08
11712;BME280;5912;51.034;6.984;2023-04-30T03:03:32;56628.78;;;-142.13;74.83
11712;BME280;5912;51.034;6.984;2023-04-30T03:05:57;56594.72;;;-142.13;75.13
11712;BME280;5912;51.034;6.984;2023-04-30T03:08:24;56624.75;;;-142.13;74.96
11712;BME280;5912;51.034;6.984;2023-04-30T03:10:49;56606.75;;;-142.13;74.99
11712;BME280;5912;51.034;6.984;2023-04-30T03:13:14;56628.78;;;-142.13;75.36
11712;BME280;5912;51.034;6.984;2023-04-30T03:15:40;56596.72;;;-142.13;75.45
11712;BME280;5912;51.034;6.984;2023-04-30T03:18:05;56628.78;;;-142.13;75.25
11712;BME280;5912;51.034;6.984;2023-04-30T03:20:30;56618.75;;;-142.13;75.58
11712;BME280;5912;51.034;6.984;2023-04-30T03:22:56;56614.75;;;-142.13;75.75
11712;BME280;5912;51.034;6.984;2023-04-30T03:25:21;56624.75;;;-142.13;75.70
11712;BME280;5912;51.034;6.984;2023-04-30T03:27:46;56614.75;;;-142.13;75.72
11712;BME280;5912;51.034;6.984;2023-04-30T03:30:12;56604.72;;;-142.13;75.54
11712;BME280;5912;51.034;6.984;2023-04-30T03:32:37;56598.72;;;-142.13;75.56
11712;BME280;5912;51.034;6.984;2023-04-30T03:35:03;56602.72;;;-142.13;75.90
11712;BME280;5912;51.034;6.984;2023-04-30T03:37:28;56624.75;;;-142.13;76.08
11712;BME280;5912;51.034;6.984;2023-04-30T03:39:53;56622.75;;;-142.13;75.39
11712;BME280;5912;51.034;6.984;2023-04-30T03:42:19;56612.75;;;-142.13;75.75
11712;BME280;5912;51.034;6.984;2023-04-30T03:44:45;56596.72;;;-142.13;76.04
11712;BME280;5912;51.034;6.984;2023-04-30T03:47:10;56614.75;;;-142.13;76.31
11712;BME280;5912;51.034;6.984;2023-04-30T03:49:35;56616.75;;;-142.13;75.60
11712;BME280;5912;51.034;6.984;2023-04-30T03:52:01;56620.75;;;-142.13;76.03
11712;BME280;5912;51.034;6.984;2023-04-30T03:54:26;56604.72;;;-142.13;76.04
11712;BME280;5912;51.034;6.984;2023-04-30T03:56:52;56632.78;;;-142.13;75.99
11712;BME280;5912;51.034;6.984;2023-04-30T03:59:18;56604.72;;;-142.13;76.45
11712;BME280;5912;51.034;6.984;2023-04-30T04:01:43;56590.72;;;-142.13;76.39
11712;BME280;5912;51.034;6.984;2023-04-30T04:04:09;56626.78;;;-142.13;76.29
11712;BME280;5912;51.034;6.984;2023-04-30T04:06:34;56604.72;;;-142.13;76.52
11712;BME280;5912;51.034;6.984;2023-04-30T04:08:59;56618.75;;;-142.13;76.00
11712;BME280;5912;51.034;6.984;2023-04-30T04:11:25;56624.75;;;-142.13;76.27
11712;BME280;5912;51.034;6.984;2023-04-30T04:13:50;56636.78;;;-142.13;75.95
11712;BME280;5912;51.034;6.984;2023-04-30T04:16:15;56594.72;;;-142.13;76.04
11712;BME280;5912;51.034;6.984;2023-04-30T04:18:41;56628.78;;;-142.13;76.59
11712;BME280;5912;51.034;6.984;2023-04-30T04:21:06;56632.78;;;-142.13;76.04
11712;BME280;5912;51.034;6.984;2023-04-30T04:23:31;56646.81;;;-142.13;76.16
11712;BME280;5912;51.034;6.984;2023-04-30T04:25:57;56644.81;;;-142.13;76.60
11712;BME280;5912;51.034;6.984;2023-04-30T04:28:22;56624.75;;;-142.13;76.56
11712;BME280;5912;51.034;6.984;2023-04-30T04:30:47;56642.78;;;-142.13;76.22
11712;BME280;5912;51.034;6.984;2023-04-30T04:33:13;56596.72;;;-142.13;75.74
11712;BME280;5912;51.034;6.984;2023-04-30T04:35:39;56624.75;;;-142.13;75.51
11712;BME280;5912;51.034;6.984;2023-04-30T04:38:04;56592.72;;;-142.13;75.95
11712;BME280;5912;51.034;6.984;2023-04-30T04:40:30;56588.69;;;-142.13;75.92
11712;BME280;5912;51.034;6.984;2023-04-30T04:42:55;56610.75;;;-142.13;76.34
11712;BME280;5912;51.034;6.984;2023-04-30T04:45:21;56612.75;;;-142.13;76.05
11712;BME280;5912;51.034;6.984;2023-04-30T04:47:46;56608.75;;;-142.13;75.95
11712;BME280;5912;51.034;6.984;2023-04-30T04:50:12;56622.75;;;-142.13;75.71
11712;BME280;5912;51.034;6.984;2023-04-30T04:52:37;56636.78;;;-142.13;76.25
11712;BME280;5912;51.034;6.984;2023-04-30T04:55:03;56612.75;;;-142.13;75.83
11712;BME280;5912;51.034;6.984;2023-04-30T04:57:29;56640.78;;;-142.13;75.77
11712;BME280;5912;51.034;6.984;2023-04-30T04:59:54;56578.69;;;-142.13;75.99
11712;BME280;5912;51.034;6.984;2023-04-30T05:02:20;56576.69;;;-142.13;76.16
11712;BME280;5912;51.034;6.984;2023-04-30T05:04:47;56570.69;;;-142.13;75.63
11712;BME280;5912;51.034;6.984;2023-04-30T05:07:14;56604.72;;;-142.13;75.65
11712;BME280;5912;51.034;6.984;2023-04-30T05:09:40;56596.72;;;-142.13;75.88
11712;BME280;5912;51.034;6.984;2023-04-30T05:12:05;56652.81;;;-142.13;76.02
11712;BME280;5912;51.034;6.984;2023-04-30T05:14:30;56608.75;;;-142.13;75.65
11712;BME280;5912;51.034;6.984;2023-04-30T05:16:55;56606.75;;;-142.13;75.62
11712;BME280;5912;51.034;6.984;2023-04-30T05:19:21;56620.75;;;-142.13;75.65
11712;BME280;5912;51.034;6.984;2023-04-30T05:21:46;56600.72;;;-142.13;75.44
11712;BME280;5912;51.034;6.984;2023-04-30T05:24:11;56600.72;;;-142.13;75.58
11712;BME280;5912;51.034;6.984;2023-04-30T05:26:37;56572.69;;;-142.13;75.49
11712;BME280;5912;51.034;6.984;2023-04-30T05:29:02;56594.72;;;-142.13;75.37
11712;BME280;5912;51.034;6.984;2023-04-30T05:31:27;56588.69;;;-142.13;75.36
11712;BME280;5912;51.034;6.984;2023-04-30T05:33:52;56556.66;;;-142.13;75.20
11712;BME280;5912;51.034;6.984;2023-04-30T05:36:18;56584.69;;;-142.13;75.07
11712;BME280;5912;51.034;6.984;2023-04-30T05:38:43;56568.66;;;-142.13;74.90
11712;BME280;5912;51.034;6.984;2023-04-30T05:41:11;56570.69;;;-142.13;74.88
11712;BME280;5912;51.034;6.984;2023-04-30T05:43:36;56548.63;;;-142.13;74.55
11712;BME280;5912;51.034;6.984;2023-04-30T05:46:01;56566.66;;;-142.13;74.33
11712;BME280;5912;51.034;6.984;2023-04-30T05:48:30;56556.66;;;-142.13;74.08
11712;BME280;5912;51.034;6.984;2023-04-30T05:50:55;56568.66;;;-142.13;74.27
11712;BME280;5912;51.034;6.984;2023-04-30T05:53:21;56554.66;;;-142.13;73.98
11712;BME280;5912;51.034;6.984;2023-04-30T05:55:46;56564.66;;;-142.13;73.73
11712;BME280;5912;51.034;6.984;2023-04-30T05:58:11;56548.63;;;-142.13;73.64
11712;BME280;5912;51.034;6.984;2023-04-30T06:00:37;56572.69;;;-142.13;73.48
11712;BME280;5912;51.034;6.984;2023-04-30T06:03:03;56528.59;;;-142.13;72.75
11712;BME280;5912;51.034;6.984;2023-04-30T06:05:28;56550.63;;;-142.13;72.66
11712;BME280;5912;51.034;6.984;2023-04-30T06:07:54;56546.63;;;-142.13;71.94
11712;BME280;5912;51.034;6.984;2023-04-30T06:10:19;56532.63;;;-142.13;71.79
11712;BME280;5912;51.034;6.984;2023-04-30T06:12:45;56548.63;;;-142.13;71.56
11712;BME280;5912;51.034;6.984;2023-04-30T06:15:10;56530.59;;;-142.13;70.40
11712;BME280;5912;51.034;6.984;2023-04-30T06:17:35;56490.53;;;-142.13;69.15
11712;BME280;5912;51.034;6.984;2023-04-30T06:20:01;56494.56;;;-142.13;68.85
11712;BME280;5912;51.034;6.984;2023-04-30T06:22:30;56500.56;;;-142.13;68.87
11712;BME280;5912;51.034;6.984;2023-04-30T06:24:55;56518.59;;;-142.13;67.95
11712;BME280;5912;51.034;6.984;2023-04-30T06:27:22;56520.59;;;-142.13;67.86
11712;BME280;5912;51.034;6.984;2023-04-30T06:29:47;56508.56;;;-142.13;67.15
11712;BME280;5912;51.034;6.984;2023-04-30T06:32:12;56456.50;;;-142.13;66.33
11712;BME280;5912;51.034;6.984;2023-04-30T06:34:38;56468.50;;;-142.13;66.24
11712;BME280;5912;51.034;6.984;2023-04-30T06:37:03;56452.47;;;-142.13;64.97
11712;BME280;5912;51.034;6.984;2023-04-30T06:39:28;56432.44;;;-142.13;63.16
11712;BME280;5912;51.034;6.984;2023-04-30T06:41:54;56396.41;;;-142.13;61.01
11712;BME280;5912;51.034;6.984;2023-04-30T06:44:20;56374.34;;;-142.13;58.62
11712;BME280;5912;51.034;6.984;2023-04-30T06:46:45;56338.31;;;-142.13;56.04
11712;BME280;5912;51.034;6.984;2023-04-30T06:49:10;56344.31;;;-142.13;51.17
11712;BME280;5912;51.034;6.984;2023-04-30T06:51:36;56320.28;;;-142.13;49.88
11712;BME280;5912;51.034;6.984;2023-04-30T06:54:01;56296.22;;;-142.13;48.43
11712;BME280;5912;51.034;6.984;2023-04-30T06:56:26;56260.19;;;-142.13;47.40
11712;BME280;5912;51.034;6.984;2023-04-30T06:58:51;56288.22;;;-142.13;45.46
11712;BME280;5912;51.034;6.984;2023-04-30T07:01:17;56236.13;;;-142.13;43.75
11712;BME280;5912;51.034;6.984;2023-04-30T07:03:42;56222.13;;;-142.13;42.44
11712;BME280;5912;51.034;6.984;2023-04-30T07:06:08;56214.09;;;-142.13;41.61
11712;BME280;5912;51.034;6.984;2023-04-30T07:08:33;56214.09;;;-142.13;41.61
11712;BME280;5912;51.034;6.984;2023-04-30T07:10:59;56180.06;;;-142.13;41.04
11712;BME280;5912;51.034;6.984;2023-04-30T07:13:24;56168.03;;;-142.13;40.59
11712;BME280;5912;51.034;6.984;2023-04-30T07:15:49;56135.97;;;-142.13;39.76
11712;BME280;5912;51.034;6.984;2023-04-30T07:18:15;56152.00;;;-142.13;39.49
11712;BME280;5912;51.034;6.984;2023-04-30T07:20:41;56129.97;;;-142.13;38.53
11712;BME280;5912;51.034;6.984;2023-04-30T07:23:06;56119.97;;;-142.13;37.40
11712;BME280;5912;51.034;6.984;2023-04-30T07:25:32;56119.97;;;-142.13;37.74
11712;BME280;5912;51.034;6.984;2023-04-30T07:27:58;56109.94;;;-142.13;36.58
11712;BME280;5912;51.034;6.984;2023-04-30T07:30:24;56105.94;;;-142.13;37.04
11712;BME280;5912;51.034;6.984;2023-04-30T07:32:49;56099.94;;;-142.13;35.93
11712;BME280;5912;51.034;6.984;2023-04-30T07:35:15;56069.88;;;-142.13;34.81
11712;BME280;5912;51.034;6.984;2023-04-30T07:37:40;56079.91;;;-142.13;34.06
11712;BME280;5912;51.034;6.984;2023-04-30T07:40:08;56067.88;;;-142.13;34.83
11712;BME280;5912;51.034;6.984;2023-04-30T07:42:39;56037.84;;;-142.13;34.17
11712;BME280;5912;51.034;6.984;2023-04-30T07:45:06;56035.81;;;-142.13;34.01
11712;BME280;5912;51.034;6.984;2023-04-30T07:47:32;56011.78;;;-142.13;33.07
11712;BME280;5912;51.034;6.984;2023-04-30T07:49:57;56017.81;;;-142.13;32.27
11712;BME280;5912;51.034;6.984;2023-04-30T07:52:22;56005.78;;;-142.13;31.55
11712;BME280;5912;51.034;6.984;2023-04-30T07:54:47;55989.75;;;-142.13;31.71
11712;BME280;5912;51.034;6.984;2023-04-30T07:57:13;56011.78;;;-142.13;31.66
11712;BME280;5912;51.034;6.984;2023-04-30T07:59:38;56003.78;;;-142.13;31.01
11712;BME280;5912;51.034;6.984;2023-04-30T08:02:03;55963.72;;;-142.13;31.44
11712;BME280;5912;51.034;6.984;2023-04-30T08:04:29;55957.72;;;-142.13;30.97
11712;BME280;5912;51.034;6.984;2023-04-30T08:06:54;55915.66;;;-142.13;29.91
11712;BME280;5912;51.034;6.984;2023-04-30T08:09:19;55939.69;;;-142.13;29.63
11712;BME280;5912;51.034;6.984;2023-04-30T08:11:45;55929.66;;;-142.13;30.20
11712;BME280;5912;51.034;6.984;2023-04-30T08:14:10;55917.66;;;-142.13;29.62
11712;BME280;5912;51.034;6.984;2023-04-30T08:16:35;55899.63;;;-142.13;28.71
11712;BME280;5912;51.034;6.984;2023-04-30T08:19:01;55887.59;;;-142.13;28.90
11712;BME280;5912;51.034;6.984;2023-04-30T08:21:27;55873.59;;;-142.13;28.42
11712;BME280;5912;51.034;6.984;2023-04-30T08:23:53;55871.59;;;-142.13;27.44
11712;BME280;5912;51.034;6.984;2023-04-30T08:26:18;55859.56;;;-142.13;27.16
11712;BME280;5912;51.034;6.984;2023-04-30T08:28:43;55883.59;;;-142.13;27.33
11712;BME280;5912;51.034;6.984;2023-04-30T08:31:09;55861.56;;;-142.13;27.55
11712;BME280;5912;51.034;6.984;2023-04-30T08:33:34;55871.59;;;-142.13;27.19
11712;BME280;5912;51.034;6.984;2023-04-30T08:36:00;55859.56;;;-142.13;27.36
11712;BME280;5912;51.034;6.984;2023-04-30T08:38:26;55835.53;;;-142.13;26.66
11712;BME280;5912;51.034;6.984;2023-04-30T08:41:01;55869.59;;;-142.13;26.97
11712;BME280;5912;51.034;6.984;2023-04-30T08:43:29;55867.56;;;-142.13;26.34
11712;BME280;5912;51.034;6.984;2023-04-30T08:45:54;55847.56;;;-142.13;26.47
11712;BME280;5912;51.034;6.984;2023-04-30T08:48:22;55891.63;;;-142.13;27.46
11712;BME280;5912;51.034;6.984;2023-04-30T08:50:48;55881.59;;;-142.13;26.75
11712;BME280;5912;51.034;6.984;2023-04-30T08:53:14;55879.59;;;-142.13;26.33
11712;BME280;5912;51.034;6.984;2023-04-30T08:55:41;55865.56;;;-142.13;26.19
11712;BME280;5912;51.034;6.984;2023-04-30T08:58:07;55863.56;;;-142.13;27.34
11712;BME280;5912;51.034;6.984;2023-04-30T09:00:35;55851.56;;;-142.13;26.69
11712;BME280;5912;51.034;6.984;2023-04-30T09:03:01;55849.56;;;-142.13;26.26
11712;BME280;5912;51.034;6.984;2023-04-30T09:05:27;55847.56;;;-142.13;26.80
11712;BME280;5912;51.034;6.984;2023-04-30T09:07:52;55831.53;;;-142.13;26.97
11712;BME280;5912;51.034;6.984;2023-04-30T09:10:20;55859.56;;;-142.13;26.60
11712;BME280;5912;51.034;6.984;2023-04-30T09:13:03;55865.56;;;-142.13;27.60
11712;BME280;5912;51.034;6.984;2023-04-30T09:15:29;55863.56;;;-142.13;27.22
11712;BME280;5912;51.034;6.984;2023-04-30T09:18:15;55869.59;;;-142.13;26.37
11712;BME280;5912;51.034;6.984;2023-04-30T09:20:59;55851.56;;;-142.13;25.09
11712;BME280;5912;51.034;6.984;2023-04-30T09:23:28;55899.63;;;-142.13;25.23
11712;BME280;5912;51.034;6.984;2023-04-30T09:25:54;55889.59;;;-142.13;26.70
11712;BME280;5912;51.034;6.984;2023-04-30T09:28:19;55879.59;;;-142.13;26.09
11712;BME280;5912;51.034;6.984;2023-04-30T09:30:50;55895.63;;;-142.13;26.20
11712;BME280;5912;51.034;6.984;2023-04-30T09:33:15;55907.63;;;-142.13;25.82
11712;BME280;5912;51.034;6.984;2023-04-30T09:35:41;55863.56;;;-142.13;26.35
11712;BME280;5912;51.034;6.984;2023-04-30T09:38:07;55867.56;;;-142.13;26.41
11712;BME280;5912;51.034;6.984;2023-04-30T09:40:48;55869.59;;;-142.13;25.27
11712;BME280;5912;51.034;6.984;2023-04-30T09:43:14;55869.59;;;-142.13;25.77
11712;BME280;5912;51.034;6.984;2023-04-30T09:45:44;55881.59;;;-142.13;25.85
11712;BME280;5912;51.034;6.984;2023-04-30T09:48:11;55883.59;;;-142.13;25.21
11712;BME280;5912;51.034;6.984;2023-04-30T09:50:40;55887.59;;;-142.13;26.00
11712;BME280;5912;51.034;6.984;2023-04-30T09:53:07;55887.59;;;-142.13;25.87
11712;BME280;5912;51.034;6.984;2023-04-30T09:55:34;55893.63;;;-142.13;25.50
11712;BME280;5912;51.034;6.984;2023-04-30T09:58:03;55891.63;;;-142.13;25.14
11712;BME280;5912;51.034;6.984;2023-04-30T10:00:29;55895.63;;;-142.13;25.54
11712;BME280;5912;51.034;6.984;2023-04-30T10:03:09;55863.56;;;-142.13;25.24
11712;BME280;5912;51.034;6.984;2023-04-30T10:05:37;55869.59;;;-142.13;25.68
11712;BME280;5912;51.034;6.984;2023-04-30T10:08:09;55865.56;;;-142.13;24.70
11712;BME280;5912;51.034;6.984;2023-04-30T10:10:37;55861.56;;;-142.13;25.41
11712;BME280;5912;51.034;6.984;2023-04-30T10:16:12;55989.75;;;-142.13;27.08
11712;BME280;5912;51.034;6.984;2023-04-30T10:18:43;55995.78;;;-142.13;27.36
11712;BME280;5912;51.034;6.984;2023-04-30T10:21:11;55971.72;;;-142.13;27.01
11712;BME280;5912;51.034;6.984;2023-04-30T10:23:38;55971.72;;;-142.13;27.41
11712;BME280;5912;51.034;6.984;2023-04-30T10:26:08;55973.75;;;-142.13;27.16
11712;BME280;5912;51.034;6.984;2023-04-30T10:28:36;56031.81;;;-142.13;27.66
11712;BME280;5912;51.034;6.984;2023-04-30T10:31:02;56053.84;;;-142.13;28.55
11712;BME280;5912;51.034;6.984;2023-04-30T10:36:31;56043.84;;;-142.13;28.59
11712;BME280;5912;51.034;6.984;2023-04-30T10:38:58;56063.88;;;-142.13;29.00
11712;BME280;5912;51.034;6.984;2023-04-30T10:41:25;56003.78;;;-142.13;27.70
11712;BME280;5912;51.034;6.984;2023-04-30T10:43:55;56001.78;;;-142.13;27.83
11712;BME280;5912;51.034;6.984;2023-04-30T10:46:21;55969.72;;;-142.13;26.95
11712;BME280;5912;51.034;6.984;2023-04-30T10:48:47;55965.72;;;-142.13;27.19
11712;BME280;5912;51.034;6.984;2023-04-30T10:51:13;55911.66;;;-142.13;25.75
11712;BME280;5912;51.034;6.984;2023-04-30T10:53:41;55871.59;;;-142.13;25.97
11712;BME280;5912;51.034;6.984;2023-04-30T10:56:07;55895.63;;;-142.13;25.71
11712;BME280;5912;51.034;6.984;2023-04-30T10:58:39;55923.66;;;-142.13;25.40
11712;BME280;5912;51.034;6.984;2023-04-30T11:01:13;55939.69;;;-142.13;25.89
11712;BME280;5912;51.034;6.984;2023-04-30T11:03:41;55933.69;;;-142.13;26.43
11712;BME280;5912;51.034;6.984;2023-04-30T11:06:11;55907.63;;;-142.13;26.31
11712;BME280;5912;51.034;6.984;2023-04-30T11:08:39;55913.66;;;-142.13;25.92
11712;BME280;5912;51.034;6.984;2023-04-30T11:11:08;55951.69;;;-142.13;26.18
11712;BME280;5912;51.034;6.984;2023-04-30T11:13:43;55959.72;;;-142.13;26.65
11712;BME280;5912;51.034;6.984;2023-04-30T11:16:09;55987.75;;;-142.13;27.95
11712;BME280;5912;51.034;6.984;2023-04-30T11:18:45;55959.72;;;-142.13;27.49
11712;BME280;5912;51.034;6.984;2023-04-30T11:21:11;55941.69;;;-142.13;26.30
11712;BME280;5912;51.034;6.984;2023-04-30T11:23:41;55929.66;;;-142.13;26.16
11712;BME280;5912;51.034;6.984;2023-04-30T11:26:09;55923.66;;;-142.13;26.19
11712;BME280;5912;51.034;6.984;2023-04-30T11:28:36;55967.72;;;-142.13;25.64
11712;BME280;5912;51.034;6.984;2023-04-30T11:31:02;55939.69;;;-142.13;25.85
11712;BME280;5912;51.034;6.984;2023-04-30T11:33:29;55951.69;;;-142.13;26.01
11712;BME280;5912;51.034;6.984;2023-04-30T11:35:56;55903.63;;;-142.13;25.67
11712;BME280;5912;51.034;6.984;2023-04-30T11:38:29;55879.59;;;-142.13;25.07
11712;BME280;5912;51.034;6.984;2023-04-30T11:40:56;55871.59;;;-142.13;24.93
11712;BME280;5912;51.034;6.984;2023-04-30T11:43:23;55847.56;;;-142.13;24.21
11712;BME280;5912;51.034;6.984;2023-04-30T11:45:58;55823.50;;;-142.13;24.41
11712;BME280;5912;51.034;6.984;2023-04-30T11:48:24;55827.53;;;-142.13;23.60
11712;BME280;5912;51.034;6.984;2023-04-30T11:50:49;55823.50;;;-142.13;23.27
11712;BME280;5912;51.034;6.984;2023-04-30T11:53:15;55791.47;;;-142.13;23.48
11712;BME280;5912;51.034;6.984;2023-04-30T11:55:40;55795.47;;;-142.13;23.84
11712;BME280;5912;51.034;6.984;2023-04-30T11:58:08;55777.44;;;-142.13;22.48
11712;BME280;5912;51.034;6.984;2023-04-30T12:00:33;55763.44;;;-142.13;22.91
11712;BME280;5912;51.034;6.984;2023-04-30T12:03:00;55789.47;;;-142.13;22.71
11712;BME280;5912;51.034;6.984;2023-04-30T12:05:27;55773.44;;;-142.13;22.99
11712;BME280;5912;51.034;6.984;2023-04-30T12:08:00;55805.50;;;-142.13;22.88
11712;BME280;5912;51.034;6.984;2023-04-30T12:10:30;55807.50;;;-142.13;23.05
11712;BME280;5912;51.034;6.984;2023-04-30T12:12:56;55871.59;;;-142.13;23.76
11712;BME280;5912;51.034;6.984;2023-04-30T12:15:23;55881.59;;;-142.13;24.00
11712;BME280;5912;51.034;6.984;2023-04-30T12:17:55;55941.69;;;-142.13;25.14
11712;BME280;5912;51.034;6.984;2023-04-30T12:20:23;55931.66;;;-142.13;25.36
11712;BME280;5912;51.034;6.984;2023-04-30T12:22:49;55901.63;;;-142.13;25.24
11712;BME280;5912;51.034;6.984;2023-04-30T12:25:20;55863.56;;;-142.13;24.51
11712;BME280;5912;51.034;6.984;2023-04-30T12:27:49;55815.50;;;-142.13;24.33
11712;BME280;5912;51.034;6.984;2023-04-30T12:30:18;55773.44;;;-142.13;23.25
11712;BME280;5912;51.034;6.984;2023-04-30T12:32:49;55757.41;;;-142.13;22.25
11712;BME280;5912;51.034;6.984;2023-04-30T12:35:26;55759.41;;;-142.13;22.72
11712;BME280;5912;51.034;6.984;2023-04-30T12:38:00;55739.38;;;-142.13;22.15
11712;BME280;5912;51.034;6.984;2023-04-30T12:40:26;55773.44;;;-142.13;22.65
11712;BME280;5912;51.034;6.984;2023-04-30T12:42:59;55835.53;;;-142.13;23.62
11712;BME280;5912;51.034;6.984;2023-04-30T12:48:07;55935.69;;;-142.13;24.67
11712;BME280;5912;51.034;6.984;2023-04-30T12:50:32;55939.69;;;-142.13;25.56
11712;BME280;5912;51.034;6.984;2023-04-30T12:53:01;55977.75;;;-142.13;26.32
11712;BME280;5912;51.034;6.984;2023-04-30T12:55:26;55983.75;;;-142.13;26.14
11712;BME280;5912;51.034;6.984;2023-04-30T12:58:07;55971.72;;;-142.13;25.92
11712;BME280;5912;51.034;6.984;2023-04-30T13:00:43;56001.78;;;-142.13;26.31
11712;BME280;5912;51.034;6.984;2023-04-30T13:03:10;55977.75;;;-142.13;26.53
11712;BME280;5912;51.034;6.984;2023-04-30T13:05:36;56023.81;;;-142.13;27.54
11712;BME280;5912;51.034;6.984;2023-04-30T13:08:01;56043.84;;;-142.13;27.50
11712;BME280;5912;51.034;6.984;2023-04-30T13:10:28;56043.84;;;-142.13;27.76
11712;BME280;5912;51.034;6.984;2023-04-30T13:12:53;56015.81;;;-142.13;27.77
11712;BME280;5912;51.034;6.984;2023-04-30T13:15:19;55991.75;;;-142.13;27.01